createdAt,value
2023-05-17T00:00:05.911Z,5.88
2023-05-17T00:00:34.976Z,5.88
2023-05-17T00:01:07.539Z,5.88
2023-05-17T00:01:36.430Z,5.88
2023-05-17T00:01:55.144Z,5.88
2023-05-17T00:02:27.428Z,5.88
2023-05-17T00:02:59.137Z,5.88
2023-05-17T00:03:31.167Z,5.88
2023-05-17T00:04:03.044Z,5.88
2023-05-17T00:04:36.572Z,5.88
2023-05-17T00:05:07.982Z,5.88
2023-05-17T00:05:36.589Z,5.88
2023-05-17T00:05:55.603Z,5.88
2023-05-17T00:06:27.225Z,5.88
2023-05-17T00:06:58.963Z,5.88
2023-05-17T00:07:31.071Z,5.88
2023-05-17T00:08:03.251Z,5.88
2023-05-17T00:08:34.884Z,5.88
2023-05-17T00:09:07.272Z,5.88
2023-05-17T00:09:36.139Z,5.88
2023-05-17T00:09:55.258Z,5.88
2023-05-17T00:10:28.062Z,5.88
2023-05-17T00:10:59.714Z,5.88
2023-05-17T00:11:32.089Z,5.88
2023-05-17T00:12:03.571Z,5.88
2023-05-17T00:12:36.174Z,5.88
2023-05-17T00:13:07.512Z,5.88
2023-05-17T00:13:36.109Z,5.88
2023-05-17T00:13:55.705Z,5.88
2023-05-17T00:14:27.508Z,5.88
2023-05-17T00:14:59.041Z,5.88
2023-05-17T00:15:33.332Z,5.88
2023-05-17T00:16:03.104Z,5.77
2023-05-17T00:16:35.140Z,5.77
2023-05-17T00:17:07.001Z,5.77
2023-05-17T00:17:36.271Z,5.77
2023-05-17T00:17:55.152Z,5.77
2023-05-17T00:18:27.103Z,5.77
2023-05-17T00:18:59.090Z,5.77
2023-05-17T00:19:31.138Z,5.77
2023-05-17T00:20:05.897Z,5.72
2023-05-17T00:20:35.160Z,5.72
2023-05-17T00:21:07.347Z,5.72
2023-05-17T00:21:37.272Z,5.72
2023-05-17T00:21:55.043Z,5.77
2023-05-17T00:22:26.982Z,5.72
2023-05-17T00:22:59.311Z,5.72
2023-05-17T00:23:30.953Z,5.77
2023-05-17T00:24:03.073Z,5.77
2023-05-17T00:24:34.857Z,5.77
2023-05-17T00:25:07.865Z,5.77
2023-05-17T00:25:36.050Z,5.77
2023-05-17T00:25:55.489Z,5.77
2023-05-17T00:26:27.509Z,5.72
2023-05-17T00:26:59.452Z,5.72
2023-05-17T00:27:31.642Z,5.72
2023-05-17T00:28:04.192Z,4.42
2023-05-17T00:28:36.002Z,4.52
2023-05-17T00:29:07.695Z,5.72
2023-05-17T00:29:36.017Z,4.42
2023-05-17T00:29:55.749Z,4.52
2023-05-17T00:30:28.631Z,4.79
2023-05-17T00:30:59.621Z,5.77
2023-05-17T00:31:30.954Z,5.77
2023-05-17T00:32:03.447Z,4.07
2023-05-17T00:32:34.916Z,4.48
2023-05-17T00:33:07.319Z,5.77
2023-05-17T00:33:36.024Z,5.77
2023-05-17T00:33:54.979Z,5.77
2023-05-17T00:34:27.086Z,5.88
2023-05-17T00:34:59.026Z,4.37
2023-05-17T00:35:31.449Z,4.70
2023-05-17T00:36:03.117Z,5.88
2023-05-17T00:36:35.480Z,4.80
2023-05-17T00:37:07.139Z,5.88
2023-05-17T00:37:36.823Z,5.88
2023-05-17T00:37:56.356Z,5.88
2023-05-17T00:38:27.061Z,5.88
2023-05-17T00:38:59.285Z,5.88
2023-05-17T00:39:31.144Z,5.88
2023-05-17T00:40:04.732Z,4.60
2023-05-17T00:40:34.907Z,4.80
2023-05-17T00:41:07.094Z,5.88
2023-05-17T00:41:36.142Z,4.70
2023-05-17T00:41:55.166Z,4.70
2023-05-17T00:42:27.113Z,4.51
2023-05-17T00:42:59.592Z,4.34
2023-05-17T00:43:31.673Z,4.74
2023-05-17T00:44:03.898Z,5.05
2023-05-17T00:44:35.486Z,6.00
2023-05-17T00:45:09.250Z,4.84
2023-05-17T00:45:36.107Z,6.00
2023-05-17T00:45:56.251Z,5.05
2023-05-17T00:46:27.598Z,6.00
2023-05-17T00:46:59.412Z,4.51
2023-05-17T00:47:31.172Z,6.00
2023-05-17T00:48:03.150Z,6.00
2023-05-17T00:48:34.967Z,6.00
2023-05-17T00:49:07.182Z,6.00
2023-05-17T00:49:36.032Z,6.00
2023-05-17T00:49:55.080Z,4.94
2023-05-17T00:50:27.437Z,6.00
2023-05-17T00:50:59.084Z,6.00
2023-05-17T00:51:31.128Z,6.00
2023-05-17T00:52:02.974Z,6.00
2023-05-17T00:52:34.912Z,6.00
2023-05-17T00:53:07.056Z,6.00
2023-05-17T00:53:36.604Z,4.74
2023-05-17T00:53:55.250Z,6.00
2023-05-17T00:54:27.381Z,6.00
2023-05-17T00:54:59.152Z,6.00
2023-05-17T00:55:31.777Z,6.00
2023-05-17T00:56:03.296Z,6.00
2023-05-17T00:56:34.892Z,6.00
2023-05-17T00:57:07.182Z,6.00
2023-05-17T00:57:37.198Z,6.00
2023-05-17T00:57:55.665Z,6.00
2023-05-17T00:58:27.038Z,6.00
2023-05-17T00:58:59.690Z,6.00
2023-05-17T00:59:31.561Z,6.00
2023-05-17T01:00:06.358Z,6.00
2023-05-17T01:00:35.426Z,6.00
2023-05-17T01:01:08.461Z,6.00
2023-05-17T01:01:56.215Z,6.00
2023-05-17T01:02:27.750Z,6.00
2023-05-17T01:02:59.954Z,6.00
2023-05-17T01:03:31.736Z,6.00
2023-05-17T01:04:03.185Z,6.00
2023-05-17T01:04:35.339Z,6.00
2023-05-17T01:05:08.439Z,6.00
2023-05-17T01:05:36.924Z,6.00
2023-05-17T01:05:55.614Z,6.00
2023-05-17T01:06:27.095Z,6.00
2023-05-17T01:06:59.417Z,5.88
2023-05-17T01:07:30.914Z,5.88
2023-05-17T01:08:03.075Z,5.88
2023-05-17T01:08:34.915Z,5.88
2023-05-17T01:09:07.012Z,5.88
2023-05-17T01:09:36.484Z,5.88
2023-05-17T01:09:55.039Z,5.88
2023-05-17T01:10:27.393Z,5.88
2023-05-17T01:10:59.393Z,5.88
2023-05-17T01:11:31.114Z,5.88
2023-05-17T01:12:03.099Z,5.88
2023-05-17T01:12:35.107Z,5.88
2023-05-17T01:13:06.941Z,5.88
2023-05-17T01:13:36.644Z,5.88
2023-05-17T01:13:55.067Z,5.88
2023-05-17T01:14:27.040Z,5.77
2023-05-17T01:14:59.265Z,5.77
2023-05-17T01:15:32.318Z,5.72
2023-05-17T01:16:04.008Z,5.72
2023-05-17T01:16:35.375Z,5.61
2023-05-17T01:17:07.685Z,5.50
2023-05-17T01:17:36.227Z,5.50
2023-05-17T01:17:55.960Z,5.38
2023-05-17T01:18:27.646Z,5.27
2023-05-17T01:18:59.953Z,5.22
2023-05-17T01:19:31.689Z,5.22
2023-05-17T01:20:05.837Z,5.11
2023-05-17T01:20:35.762Z,5.00
2023-05-17T01:21:07.502Z,5.00
2023-05-17T01:21:36.131Z,5.00
2023-05-17T01:21:55.009Z,5.00
2023-05-17T01:22:27.069Z,4.88
2023-05-17T01:22:59.056Z,4.88
2023-05-17T01:23:31.042Z,4.88
2023-05-17T01:24:03.073Z,4.88
2023-05-17T01:24:34.940Z,4.88
2023-05-17T01:25:08.332Z,4.88
2023-05-17T01:25:36.762Z,4.88
2023-05-17T01:25:55.563Z,4.88
2023-05-17T01:26:27.167Z,5.00
2023-05-17T01:26:59.081Z,5.00
2023-05-17T01:27:31.221Z,5.00
2023-05-17T01:28:03.074Z,5.11
2023-05-17T01:28:34.899Z,5.11
2023-05-17T01:29:07.168Z,5.11
2023-05-17T01:29:37.384Z,5.11
2023-05-17T01:29:55.671Z,5.11
2023-05-17T01:30:28.245Z,5.11
2023-05-17T01:30:59.083Z,5.22
2023-05-17T01:31:31.300Z,5.22
2023-05-17T01:32:03.788Z,5.11
2023-05-17T01:32:35.449Z,5.11
2023-05-17T01:33:07.587Z,5.11
2023-05-17T01:33:36.115Z,5.11
2023-05-17T01:33:55.811Z,5.11
2023-05-17T01:34:27.670Z,5.11
2023-05-17T01:34:59.587Z,5.11
2023-05-17T01:35:32.407Z,5.11
2023-05-17T01:36:03.661Z,5.11
2023-05-17T01:36:36.455Z,5.11
2023-05-17T01:37:07.087Z,5.11
2023-05-17T01:37:36.220Z,5.11
2023-05-17T01:37:55.296Z,5.11
2023-05-17T01:38:26.984Z,5.11
2023-05-17T01:38:59.038Z,5.11
2023-05-17T01:39:31.012Z,5.11
2023-05-17T01:40:04.889Z,5.00
2023-05-17T01:40:34.962Z,5.00
2023-05-17T01:41:07.079Z,5.00
2023-05-17T01:41:36.311Z,5.00
2023-05-17T01:41:55.090Z,5.00
2023-05-17T01:42:26.982Z,5.00
2023-05-17T01:42:59.157Z,5.00
2023-05-17T01:43:31.081Z,4.88
2023-05-17T01:44:03.160Z,4.88
2023-05-17T01:44:34.881Z,4.88
2023-05-17T01:45:08.643Z,4.77
2023-05-17T01:45:36.704Z,4.77
2023-05-17T01:45:55.604Z,3.65
2023-05-17T01:46:27.052Z,4.77
2023-05-17T01:46:59.178Z,3.59
2023-05-17T01:47:31.261Z,3.59
2023-05-17T01:48:03.634Z,3.59
2023-05-17T01:48:35.400Z,3.46
2023-05-17T01:49:08.281Z,3.46
2023-05-17T01:49:36.214Z,4.61
2023-05-17T01:49:55.765Z,4.61
2023-05-17T01:50:28.058Z,4.50
2023-05-17T01:50:59.688Z,4.50
2023-05-17T01:51:31.642Z,4.50
2023-05-17T01:52:03.731Z,4.38
2023-05-17T01:52:35.318Z,4.38
2023-05-17T01:53:07.149Z,4.38
2023-05-17T01:53:36.218Z,3.20
2023-05-17T01:53:55.091Z,4.38
2023-05-17T01:54:27.045Z,4.27
2023-05-17T01:54:59.160Z,4.27
2023-05-17T01:55:37.136Z,4.27
2023-05-17T01:56:03.174Z,4.27
2023-05-17T01:56:36.238Z,4.27
2023-05-17T01:57:07.024Z,4.27
2023-05-17T01:57:36.378Z,4.22
2023-05-17T01:57:55.098Z,4.22
2023-05-17T01:58:27.015Z,4.22
2023-05-17T01:58:59.089Z,4.22
2023-05-17T01:59:31.011Z,4.22
2023-05-17T02:00:05.173Z,4.22
2023-05-17T02:00:35.059Z,4.11
2023-05-17T02:01:08.435Z,4.11
2023-05-17T02:01:37.006Z,4.11
2023-05-17T02:01:55.100Z,4.11
2023-05-17T02:02:27.338Z,4.11
2023-05-17T02:02:59.167Z,4.11
2023-05-17T02:03:31.151Z,4.11
2023-05-17T02:04:03.557Z,4.00
2023-05-17T02:04:35.543Z,4.00
2023-05-17T02:05:08.433Z,4.00
2023-05-17T02:05:36.198Z,4.00
2023-05-17T02:05:57.804Z,4.00
2023-05-17T02:06:28.185Z,4.00
2023-05-17T02:06:59.950Z,4.00
2023-05-17T02:07:31.741Z,4.00
2023-05-17T02:08:03.996Z,4.00
2023-05-17T02:08:35.546Z,4.00
2023-05-17T02:09:07.491Z,4.00
2023-05-17T02:09:36.233Z,4.00
2023-05-17T02:09:55.002Z,4.00
2023-05-17T02:10:27.517Z,3.88
2023-05-17T02:10:59.010Z,3.88
2023-05-17T02:11:31.200Z,3.88
2023-05-17T02:12:03.074Z,3.88
2023-05-17T02:12:34.858Z,3.88
2023-05-17T02:13:07.037Z,3.88
2023-05-17T02:13:36.334Z,3.88
2023-05-17T02:13:55.208Z,3.77
2023-05-17T02:14:27.234Z,3.77
2023-05-17T02:14:59.105Z,3.77
2023-05-17T02:15:32.428Z,3.72
2023-05-17T02:16:03.070Z,3.72
2023-05-17T02:16:34.909Z,3.72
2023-05-17T02:17:06.944Z,3.72
2023-05-17T02:17:36.761Z,3.61
2023-05-17T02:17:55.107Z,3.61
2023-05-17T02:18:27.157Z,3.61
2023-05-17T02:18:59.519Z,3.61
2023-05-17T02:19:31.186Z,3.61
2023-05-17T02:20:04.863Z,3.61
2023-05-17T02:20:35.563Z,3.61
2023-05-17T02:21:09.060Z,3.61
2023-05-17T02:21:36.333Z,3.61
2023-05-17T02:21:55.706Z,3.61
2023-05-17T02:22:27.545Z,3.61
2023-05-17T02:23:00.427Z,3.50
2023-05-17T02:23:31.725Z,3.50
2023-05-17T02:24:03.654Z,3.50
2023-05-17T02:24:35.823Z,3.50
2023-05-17T02:25:09.011Z,3.50
2023-05-17T02:25:37.499Z,3.50
2023-05-17T02:25:56.091Z,3.38
2023-05-17T02:26:27.286Z,3.38
2023-05-17T02:26:59.157Z,3.38
2023-05-17T02:27:31.059Z,3.38
2023-05-17T02:28:03.119Z,3.38
2023-05-17T02:28:35.060Z,3.38
2023-05-17T02:29:07.146Z,3.38
2023-05-17T02:29:35.988Z,3.38
2023-05-17T02:29:55.299Z,3.38
2023-05-17T02:30:28.018Z,3.27
2023-05-17T02:30:59.229Z,3.27
2023-05-17T02:31:31.160Z,3.27
2023-05-17T02:32:03.273Z,3.27
2023-05-17T02:32:35.084Z,3.27
2023-05-17T02:33:07.247Z,3.27
2023-05-17T02:33:37.084Z,3.27
2023-05-17T02:33:55.642Z,3.27
2023-05-17T02:34:27.110Z,3.27
2023-05-17T02:34:58.983Z,3.27
2023-05-17T02:35:31.717Z,3.27
2023-05-17T02:36:03.155Z,3.27
2023-05-17T02:36:35.411Z,3.27
2023-05-17T02:37:07.501Z,3.27
2023-05-17T02:37:36.310Z,3.38
2023-05-17T02:37:55.735Z,3.38
2023-05-17T02:38:27.627Z,3.38
2023-05-17T02:38:59.707Z,3.38
2023-05-17T02:39:31.770Z,3.38
2023-05-17T02:40:05.125Z,3.27
2023-05-17T02:40:35.689Z,3.27
2023-05-17T02:41:07.576Z,3.27
2023-05-17T02:41:36.093Z,3.27
2023-05-17T02:41:55.210Z,3.27
2023-05-17T02:42:26.972Z,3.22
2023-05-17T02:42:59.081Z,3.22
2023-05-17T02:43:31.361Z,3.22
2023-05-17T02:44:03.091Z,3.22
2023-05-17T02:44:34.936Z,3.22
2023-05-17T02:45:08.341Z,3.22
2023-05-17T02:45:36.068Z,3.22
2023-05-17T02:45:55.560Z,3.22
2023-05-17T02:46:27.145Z,3.27
2023-05-17T02:46:59.335Z,3.27
2023-05-17T02:47:31.249Z,3.27
2023-05-17T02:48:03.385Z,3.27
2023-05-17T02:48:35.430Z,3.38
2023-05-17T02:49:06.989Z,3.38
2023-05-17T02:49:36.901Z,3.38
2023-05-17T02:49:55.013Z,3.38
2023-05-17T02:50:27.410Z,3.50
2023-05-17T02:50:59.098Z,3.50
2023-05-17T02:51:31.119Z,3.50
2023-05-17T02:52:03.129Z,3.50
2023-05-17T02:52:35.036Z,3.50
2023-05-17T02:53:07.356Z,3.61
2023-05-17T02:53:36.067Z,3.61
2023-05-17T02:53:55.790Z,3.61
2023-05-17T02:54:27.923Z,3.61
2023-05-17T02:54:59.568Z,2.32
2023-05-17T02:55:32.185Z,3.61
2023-05-17T02:56:03.632Z,3.61
2023-05-17T02:56:36.064Z,3.61
2023-05-17T02:57:07.681Z,3.61
2023-05-17T02:57:36.048Z,3.61
2023-05-17T02:57:55.280Z,3.61
2023-05-17T02:58:26.995Z,3.61
2023-05-17T02:58:59.508Z,3.72
2023-05-17T02:59:30.994Z,3.72
2023-05-17T03:00:06.228Z,3.72
2023-05-17T03:00:35.727Z,3.72
2023-05-17T03:01:08.327Z,3.72
2023-05-17T03:01:36.020Z,3.72
2023-05-17T03:01:55.706Z,3.72
2023-05-17T03:02:27.176Z,3.72
2023-05-17T03:02:59.172Z,3.72
2023-05-17T03:03:31.786Z,3.61
2023-05-17T03:04:03.255Z,3.61
2023-05-17T03:04:34.988Z,3.61
2023-05-17T03:05:08.355Z,3.61
2023-05-17T03:05:37.552Z,3.61
2023-05-17T03:05:55.598Z,3.61
2023-05-17T03:06:28.142Z,3.61
2023-05-17T03:06:59.366Z,3.61
2023-05-17T03:07:31.067Z,3.61
2023-05-17T03:08:03.184Z,3.50
2023-05-17T03:08:34.978Z,3.50
2023-05-17T03:09:07.141Z,3.50
2023-05-17T03:09:36.222Z,3.50
2023-05-17T03:09:55.638Z,3.50
2023-05-17T03:10:27.998Z,3.50
2023-05-17T03:11:00.201Z,3.38
2023-05-17T03:11:31.728Z,3.38
2023-05-17T03:12:03.696Z,3.38
2023-05-17T03:12:35.760Z,3.38
2023-05-17T03:13:07.764Z,3.38
2023-05-17T03:13:36.086Z,3.38
2023-05-17T03:13:55.778Z,3.38
2023-05-17T03:14:27.221Z,3.38
2023-05-17T03:14:59.160Z,3.38
2023-05-17T03:15:32.589Z,3.27
2023-05-17T03:16:03.563Z,3.27
2023-05-17T03:16:35.552Z,3.27
2023-05-17T03:17:07.036Z,3.27
2023-05-17T03:17:36.189Z,3.27
2023-05-17T03:17:55.182Z,3.27
2023-05-17T03:18:27.475Z,3.27
2023-05-17T03:18:59.935Z,3.22
2023-05-17T03:19:31.193Z,3.22
2023-05-17T03:20:05.804Z,3.22
2023-05-17T03:20:35.348Z,3.22
2023-05-17T03:21:07.283Z,3.22
2023-05-17T03:21:37.512Z,3.22
2023-05-17T03:21:55.673Z,3.22
2023-05-17T03:22:27.597Z,3.22
2023-05-17T03:23:00.357Z,3.22
2023-05-17T03:23:31.458Z,3.22
2023-05-17T03:24:03.323Z,3.11
2023-05-17T03:24:36.150Z,3.11
2023-05-17T03:25:08.390Z,3.11
2023-05-17T03:25:36.292Z,3.11
2023-05-17T03:25:56.436Z,3.11
2023-05-17T03:26:28.171Z,3.11
2023-05-17T03:26:59.975Z,3.11
2023-05-17T03:27:32.082Z,3.11
2023-05-17T03:28:03.931Z,3.11
2023-05-17T03:28:35.836Z,3.11
2023-05-17T03:29:08.227Z,3.11
2023-05-17T03:29:36.294Z,3.11
2023-05-17T03:29:56.121Z,3.11
2023-05-17T03:30:28.849Z,3.11
2023-05-17T03:31:00.034Z,3.11
2023-05-17T03:31:31.437Z,3.00
2023-05-17T03:32:03.367Z,3.00
2023-05-17T03:32:36.238Z,3.00
2023-05-17T03:33:07.329Z,3.00
2023-05-17T03:33:36.498Z,3.00
2023-05-17T03:33:55.522Z,2.88
2023-05-17T03:34:27.331Z,2.88
2023-05-17T03:34:59.345Z,2.88
2023-05-17T03:35:32.050Z,2.88
2023-05-17T03:36:03.450Z,2.88
2023-05-17T03:36:35.796Z,2.88
2023-05-17T03:37:07.865Z,2.88
2023-05-17T03:37:36.908Z,2.88
2023-05-17T03:37:55.707Z,2.88
2023-05-17T03:38:27.361Z,2.88
2023-05-17T03:38:59.282Z,2.88
2023-05-17T03:39:31.379Z,2.88
2023-05-17T03:40:04.932Z,2.88
2023-05-17T03:40:35.577Z,2.88
2023-05-17T03:41:07.341Z,2.77
2023-05-17T03:41:38.006Z,2.77
2023-05-17T03:41:56.010Z,2.77
2023-05-17T03:42:28.384Z,2.77
2023-05-17T03:43:00.135Z,2.77
2023-05-17T03:43:32.059Z,2.77
2023-05-17T03:44:04.087Z,2.77
2023-05-17T03:44:35.920Z,2.77
2023-05-17T03:45:09.559Z,2.77
2023-05-17T03:45:36.324Z,2.77
2023-05-17T03:45:56.484Z,2.77
2023-05-17T03:46:27.919Z,2.77
2023-05-17T03:46:59.873Z,2.77
2023-05-17T03:47:31.650Z,2.77
2023-05-17T03:48:03.709Z,2.77
2023-05-17T03:48:36.346Z,2.77
2023-05-17T03:49:07.272Z,2.88
2023-05-17T03:49:36.486Z,2.88
2023-05-17T03:49:55.664Z,2.88
2023-05-17T03:50:27.728Z,2.88
2023-05-17T03:50:59.796Z,2.88
2023-05-17T03:51:31.540Z,2.88
2023-05-17T03:52:03.304Z,2.88
2023-05-17T03:52:35.143Z,3.00
2023-05-17T03:53:07.325Z,3.00
2023-05-17T03:53:36.782Z,3.00
2023-05-17T03:53:55.472Z,3.00
2023-05-17T03:54:27.251Z,3.00
2023-05-17T03:54:59.303Z,3.00
2023-05-17T03:55:31.758Z,3.11
2023-05-17T03:56:03.449Z,3.11
2023-05-17T03:56:35.188Z,3.11
2023-05-17T03:57:07.238Z,3.11
2023-05-17T03:57:36.326Z,3.11
2023-05-17T03:57:56.173Z,3.11
2023-05-17T03:58:27.967Z,3.11
2023-05-17T03:58:59.803Z,3.11
2023-05-17T03:59:32.262Z,3.22
2023-05-17T04:00:06.420Z,3.22
2023-05-17T04:00:36.113Z,3.22
2023-05-17T04:01:08.601Z,3.22
2023-05-17T04:01:36.365Z,3.22
2023-05-17T04:01:55.968Z,3.22
2023-05-17T04:02:28.065Z,3.27
2023-05-17T04:03:00.053Z,3.27
2023-05-17T04:03:31.558Z,3.27
2023-05-17T04:04:03.536Z,3.27
2023-05-17T04:04:35.403Z,3.27
2023-05-17T04:05:08.927Z,3.27
2023-05-17T04:05:36.359Z,3.38
2023-05-17T04:05:55.870Z,3.38
2023-05-17T04:06:27.963Z,3.38
2023-05-17T04:06:59.602Z,3.38
2023-05-17T04:07:31.380Z,3.38
2023-05-17T04:08:03.520Z,3.38
2023-05-17T04:08:35.448Z,3.38
2023-05-17T04:09:07.368Z,3.38
2023-05-17T04:09:37.254Z,3.38
2023-05-17T04:09:55.334Z,3.38
2023-05-17T04:10:27.861Z,3.38
2023-05-17T04:10:59.815Z,3.38
2023-05-17T04:11:31.806Z,3.38
2023-05-17T04:12:03.340Z,3.38
2023-05-17T04:12:35.301Z,3.38
2023-05-17T04:13:07.872Z,3.38
2023-05-17T04:13:36.529Z,3.38
2023-05-17T04:13:55.856Z,3.38
2023-05-17T04:14:27.755Z,3.38
2023-05-17T04:14:59.848Z,3.38
2023-05-17T04:15:33.413Z,3.38
2023-05-17T04:16:04.199Z,3.38
2023-05-17T04:16:35.755Z,3.38
2023-05-17T04:17:07.913Z,3.38
2023-05-17T04:17:36.266Z,3.50
2023-05-17T04:17:56.206Z,3.50
2023-05-17T04:18:27.751Z,3.50
2023-05-17T04:18:59.985Z,3.50
2023-05-17T04:19:31.798Z,3.50
2023-05-17T04:20:06.116Z,3.61
2023-05-17T04:20:35.803Z,3.61
2023-05-17T04:21:07.278Z,3.61
2023-05-17T04:21:36.302Z,3.61
2023-05-17T04:21:55.353Z,3.72
2023-05-17T04:22:27.381Z,3.72
2023-05-17T04:23:00.328Z,3.72
2023-05-17T04:23:31.453Z,3.77
2023-05-17T04:24:04.500Z,3.77
2023-05-17T04:24:35.456Z,3.77
2023-05-17T04:25:08.188Z,3.77
2023-05-17T04:25:37.618Z,3.88
2023-05-17T04:25:55.809Z,3.88
2023-05-17T04:26:27.558Z,3.88
2023-05-17T04:27:00.272Z,3.88
2023-05-17T04:27:31.416Z,3.88
2023-05-17T04:28:03.458Z,3.88
2023-05-17T04:28:35.389Z,3.88
2023-05-17T04:29:07.205Z,3.88
2023-05-17T04:29:36.403Z,3.88
2023-05-17T04:29:55.541Z,3.88
2023-05-17T04:30:29.518Z,3.88
2023-05-17T04:30:59.945Z,3.88
2023-05-17T04:31:32.158Z,3.88
2023-05-17T04:32:05.214Z,3.88
2023-05-17T04:32:36.170Z,3.88
2023-05-17T04:33:07.861Z,3.88
2023-05-17T04:33:36.320Z,3.88
2023-05-17T04:33:56.100Z,3.88
2023-05-17T04:34:28.097Z,3.88
2023-05-17T04:34:59.889Z,4.00
2023-05-17T04:35:32.544Z,4.00
2023-05-17T04:36:04.284Z,4.00
2023-05-17T04:36:35.367Z,4.00
2023-05-17T04:37:07.323Z,4.00
2023-05-17T04:37:36.638Z,4.00
2023-05-17T04:37:55.445Z,4.00
2023-05-17T04:38:27.332Z,4.00
2023-05-17T04:38:59.360Z,3.88
2023-05-17T04:39:31.428Z,3.88
2023-05-17T04:40:05.162Z,3.88
2023-05-17T04:40:35.361Z,3.88
2023-05-17T04:41:07.300Z,3.88
2023-05-17T04:41:36.964Z,3.88
2023-05-17T04:41:55.469Z,4.00
2023-05-17T04:42:27.355Z,4.00
2023-05-17T04:42:59.880Z,4.00
2023-05-17T04:43:31.547Z,4.00
2023-05-17T04:44:03.419Z,4.00
2023-05-17T04:44:35.450Z,4.00
2023-05-17T04:45:08.783Z,4.00
2023-05-17T04:45:37.293Z,4.00
2023-05-17T04:45:55.999Z,4.00
2023-05-17T04:46:28.157Z,4.00
2023-05-17T04:46:59.925Z,4.00
2023-05-17T04:47:32.475Z,4.00
2023-05-17T04:48:04.206Z,4.11
2023-05-17T04:48:35.870Z,4.11
2023-05-17T04:49:08.610Z,4.11
2023-05-17T04:49:36.672Z,4.11
2023-05-17T04:49:55.979Z,4.11
2023-05-17T04:50:28.195Z,4.22
2023-05-17T04:50:59.923Z,4.22
2023-05-17T04:51:31.962Z,4.22
2023-05-17T04:52:06.073Z,4.22
2023-05-17T04:52:35.500Z,4.22
2023-05-17T04:53:07.365Z,3.02
2023-05-17T04:53:37.182Z,4.22
2023-05-17T04:53:55.492Z,3.02
2023-05-17T04:54:27.320Z,4.22
2023-05-17T04:54:59.279Z,4.22
2023-05-17T04:55:31.880Z,4.22
2023-05-17T04:56:03.518Z,4.22
2023-05-17T04:56:35.213Z,4.22
2023-05-17T04:57:07.449Z,4.22
2023-05-17T04:57:36.904Z,4.22
2023-05-17T04:57:56.164Z,4.22
2023-05-17T04:58:27.493Z,4.22
2023-05-17T04:58:59.354Z,4.27
2023-05-17T04:59:31.692Z,3.07
2023-05-17T05:00:05.704Z,3.07
2023-05-17T05:00:35.321Z,3.07
2023-05-17T05:01:08.401Z,4.27
2023-05-17T05:01:36.978Z,4.27
2023-05-17T05:01:56.203Z,4.38
2023-05-17T05:02:27.761Z,4.38
2023-05-17T05:03:00.132Z,4.38
2023-05-17T05:03:32.263Z,3.20
2023-05-17T05:04:04.584Z,3.20
2023-05-17T05:04:36.257Z,3.08
2023-05-17T05:05:09.125Z,4.38
2023-05-17T05:05:37.139Z,3.20
2023-05-17T05:05:57.465Z,3.22
2023-05-17T05:06:28.436Z,3.22
2023-05-17T05:07:00.821Z,4.50
2023-05-17T05:07:32.017Z,4.50
2023-05-17T05:08:04.588Z,3.22
2023-05-17T05:08:35.528Z,3.34
2023-05-17T05:09:07.540Z,3.34
2023-05-17T05:09:36.512Z,4.50
2023-05-17T05:09:55.808Z,3.11
2023-05-17T05:10:28.103Z,3.01
2023-05-17T05:11:00.082Z,3.34
2023-05-17T05:11:31.588Z,3.46
2023-05-17T05:12:03.733Z,3.46
2023-05-17T05:12:35.537Z,3.13
2023-05-17T05:13:07.579Z,3.01
2023-05-17T05:13:37.060Z,2.85
2023-05-17T05:13:55.646Z,3.34
2023-05-17T05:14:27.773Z,3.34
2023-05-17T05:15:00.957Z,3.20
2023-05-17T05:15:33.166Z,4.38
2023-05-17T05:16:04.055Z,4.38
2023-05-17T05:16:35.443Z,3.20
2023-05-17T05:17:07.474Z,4.38
2023-05-17T05:17:37.124Z,4.38
2023-05-17T05:17:55.886Z,3.20
2023-05-17T05:18:27.939Z,3.20
2023-05-17T05:19:00.193Z,4.38
2023-05-17T05:19:32.387Z,4.38
2023-05-17T05:20:06.575Z,4.38
2023-05-17T05:20:37.109Z,2.97
2023-05-17T05:21:08.328Z,4.38
2023-05-17T05:21:36.442Z,4.38
2023-05-17T05:21:56.428Z,4.38
2023-05-17T05:22:29.768Z,4.38
2023-05-17T05:23:00.289Z,4.38
2023-05-17T05:23:32.024Z,4.38
2023-05-17T05:24:04.269Z,4.38
2023-05-17T05:24:36.368Z,4.38
2023-05-17T05:25:10.199Z,4.50
2023-05-17T05:25:36.305Z,4.50
2023-05-17T05:25:56.085Z,4.50
2023-05-17T05:26:27.674Z,4.50
2023-05-17T05:26:59.782Z,4.50
2023-05-17T05:27:31.619Z,4.50
2023-05-17T05:28:03.766Z,4.50
2023-05-17T05:28:35.683Z,4.61
2023-05-17T05:29:08.532Z,4.61
2023-05-17T05:29:37.146Z,4.61
2023-05-17T05:29:55.640Z,4.61
2023-05-17T05:30:28.545Z,4.72
2023-05-17T05:30:59.688Z,4.72
2023-05-17T05:31:31.517Z,4.72
2023-05-17T05:32:03.585Z,3.47
2023-05-17T05:32:35.643Z,3.65
2023-05-17T05:33:07.293Z,4.77
2023-05-17T05:33:37.145Z,4.77
2023-05-17T05:33:55.541Z,3.65
2023-05-17T05:34:27.632Z,3.65
2023-05-17T05:34:59.704Z,3.65
2023-05-17T05:35:32.332Z,4.72
2023-05-17T05:36:04.170Z,3.59
2023-05-17T05:36:36.115Z,4.72
2023-05-17T05:37:08.276Z,4.72
2023-05-17T05:37:36.910Z,4.72
2023-05-17T05:37:56.656Z,4.72
2023-05-17T05:38:28.232Z,4.72
2023-05-17T05:39:00.206Z,4.72
2023-05-17T05:39:32.125Z,4.72
2023-05-17T05:40:05.842Z,4.77
2023-05-17T05:40:35.628Z,4.77
2023-05-17T05:41:07.614Z,4.77
2023-05-17T05:41:36.553Z,4.77
2023-05-17T05:41:55.672Z,4.77
2023-05-17T05:42:27.556Z,4.77
2023-05-17T05:42:59.554Z,4.88
2023-05-17T05:43:32.670Z,4.88
2023-05-17T05:44:03.437Z,5.00
2023-05-17T05:44:35.988Z,5.00
2023-05-17T05:45:08.953Z,5.00
2023-05-17T05:45:36.844Z,5.00
2023-05-17T05:45:55.781Z,5.00
2023-05-17T05:46:27.638Z,5.00
2023-05-17T05:46:59.496Z,5.11
2023-05-17T05:47:31.584Z,5.11
2023-05-17T05:48:03.590Z,5.11
2023-05-17T05:48:35.767Z,5.11
2023-05-17T05:49:07.497Z,4.03
2023-05-17T05:49:36.860Z,3.92
2023-05-17T05:49:55.389Z,5.11
2023-05-17T05:50:28.282Z,5.11
2023-05-17T05:50:59.692Z,5.11
2023-05-17T05:51:32.009Z,5.11
2023-05-17T05:52:04.249Z,4.16
2023-05-17T05:52:35.839Z,5.22
2023-05-17T05:53:18.222Z,5.22
2023-05-17T05:53:36.603Z,5.22
2023-05-17T05:53:56.359Z,5.22
2023-05-17T05:54:28.122Z,5.22
2023-05-17T05:55:00.153Z,5.22
2023-05-17T05:55:32.461Z,5.22
2023-05-17T05:56:04.288Z,4.16
2023-05-17T05:56:36.238Z,4.16
2023-05-17T05:57:07.594Z,5.22
2023-05-17T05:57:36.395Z,5.22
2023-05-17T05:57:55.498Z,5.22
2023-05-17T05:58:27.555Z,5.22
2023-05-17T05:58:59.504Z,5.22
2023-05-17T05:59:31.595Z,5.22
2023-05-17T06:00:06.623Z,5.22
2023-05-17T06:00:35.650Z,5.22
2023-05-17T06:01:08.121Z,5.27
2023-05-17T06:01:37.029Z,5.27
2023-05-17T06:01:55.686Z,5.22
2023-05-17T06:02:27.798Z,5.27
2023-05-17T06:02:59.622Z,5.27
2023-05-17T06:03:31.631Z,5.27
2023-05-17T06:04:03.771Z,5.27
2023-05-17T06:04:45.387Z,5.27
2023-05-17T06:05:08.527Z,5.27
2023-05-17T06:05:37.051Z,5.27
2023-05-17T06:05:56.150Z,5.27
2023-05-17T06:06:28.240Z,5.27
2023-05-17T06:07:00.060Z,5.38
2023-05-17T06:07:32.230Z,5.38
2023-05-17T06:08:05.363Z,5.38
2023-05-17T06:08:36.092Z,5.38
2023-05-17T06:09:08.019Z,5.38
2023-05-17T06:09:36.354Z,5.38
2023-05-17T06:09:56.157Z,5.38
2023-05-17T06:10:29.319Z,5.50
2023-05-17T06:11:00.454Z,5.50
2023-05-17T06:11:32.412Z,5.50
2023-05-17T06:12:04.506Z,5.38
2023-05-17T06:12:36.638Z,5.38
2023-05-17T06:13:08.318Z,5.38
2023-05-17T06:13:36.527Z,5.38
2023-05-17T06:13:55.855Z,5.38
2023-05-17T06:14:27.636Z,5.38
2023-05-17T06:14:59.581Z,5.38
2023-05-17T06:15:33.454Z,5.38
2023-05-17T06:16:03.707Z,5.38
2023-05-17T06:16:35.886Z,5.38
2023-05-17T06:17:07.664Z,5.38
2023-05-17T06:17:37.051Z,5.38
2023-05-17T06:17:55.804Z,5.50
2023-05-17T06:18:27.554Z,5.50
2023-05-17T06:19:00.189Z,5.50
2023-05-17T06:19:32.142Z,5.50
2023-05-17T06:20:05.485Z,5.50
2023-05-17T06:20:36.051Z,5.50
2023-05-17T06:21:07.525Z,5.50
2023-05-17T06:21:37.091Z,5.50
2023-05-17T06:21:55.897Z,5.50
2023-05-17T06:22:27.584Z,5.50
2023-05-17T06:23:00.525Z,5.50
2023-05-17T06:23:32.019Z,5.61
2023-05-17T06:24:05.014Z,5.61
2023-05-17T06:24:36.700Z,5.61
2023-05-17T06:25:09.084Z,5.61
2023-05-17T06:25:37.001Z,5.72
2023-05-17T06:25:56.613Z,5.72
2023-05-17T06:26:28.237Z,5.72
2023-05-17T06:27:00.341Z,5.77
2023-05-17T06:27:32.218Z,5.77
2023-05-17T06:28:04.503Z,5.77
2023-05-17T06:28:36.235Z,5.88
2023-05-17T06:29:08.404Z,5.88
2023-05-17T06:29:36.556Z,6.00
2023-05-17T06:29:55.782Z,6.11
2023-05-17T06:30:29.353Z,6.11
2023-05-17T06:30:59.706Z,6.22
2023-05-17T06:31:31.757Z,6.22
2023-05-17T06:32:04.219Z,6.27
2023-05-17T06:32:35.747Z,6.38
2023-05-17T06:33:07.609Z,6.50
2023-05-17T06:33:36.994Z,6.50
2023-05-17T06:33:55.730Z,6.61
2023-05-17T06:34:27.644Z,6.72
2023-05-17T06:34:59.609Z,6.72
2023-05-17T06:35:40.829Z,6.77
2023-05-17T06:36:03.817Z,6.88
2023-05-17T06:36:36.656Z,6.88
2023-05-17T06:37:07.951Z,7.00
2023-05-17T06:37:37.636Z,7.00
2023-05-17T06:37:55.583Z,7.00
2023-05-17T06:38:27.657Z,7.11
2023-05-17T06:38:59.822Z,7.11
2023-05-17T06:39:32.005Z,7.11